createdAt,value
2023-04-29T00:00:21.733Z,3.28
2023-04-29T00:02:48.534Z,2.85
2023-04-29T00:05:15.774Z,2.60
2023-04-29T00:07:43.231Z,2.63
2023-04-29T00:10:10.480Z,3.00
2023-04-29T00:12:37.101Z,3.08
2023-04-29T00:15:04.716Z,2.60
2023-04-29T00:17:31.467Z,3.03
2023-04-29T00:19:58.219Z,2.80
2023-04-29T00:22:24.921Z,2.60
2023-04-29T00:24:53.155Z,2.90
2023-04-29T00:27:20.054Z,2.88
2023-04-29T00:29:46.722Z,2.70
2023-04-29T00:32:13.362Z,2.70
2023-04-29T00:34:39.960Z,2.60
2023-04-29T00:37:06.648Z,2.70
2023-04-29T00:39:33.862Z,2.83
2023-04-29T00:42:00.716Z,2.92
2023-04-29T00:44:27.340Z,2.92
2023-04-29T00:46:54.271Z,3.38
2023-04-29T00:49:21.220Z,2.95
2023-04-29T00:51:48.449Z,3.05
2023-04-29T00:54:15.737Z,2.95
2023-04-29T00:56:45.380Z,3.50
2023-04-29T00:59:12.713Z,2.42
2023-04-29T01:01:39.579Z,2.78
2023-04-29T01:04:07.987Z,3.22
2023-04-29T01:06:49.760Z,2.60
2023-04-29T01:09:16.503Z,2.92
2023-04-29T01:11:55.316Z,2.85
2023-04-29T01:14:23.859Z,3.00
2023-04-29T01:16:59.590Z,2.70
2023-04-29T01:19:46.872Z,3.05
2023-04-29T01:22:21.815Z,2.78
2023-04-29T01:24:49.660Z,2.90
2023-04-29T01:27:39.640Z,2.78
2023-04-29T01:30:24.996Z,2.45
2023-04-29T01:32:52.120Z,2.92
2023-04-29T01:35:52.456Z,3.08
2023-04-29T01:39:00.559Z,2.65
2023-04-29T01:41:43.761Z,2.83
2023-04-29T01:44:19.072Z,2.92
2023-04-29T01:46:52.234Z,2.90
2023-04-29T01:49:25.385Z,2.92
2023-04-29T01:51:52.145Z,2.88
2023-04-29T01:54:18.940Z,3.00
2023-04-29T01:56:46.049Z,2.80
2023-04-29T01:59:12.773Z,3.28
2023-04-29T02:01:39.455Z,2.78
2023-04-29T02:04:06.166Z,2.80
2023-04-29T02:06:33.582Z,2.80
2023-04-29T02:09:00.452Z,2.78
2023-04-29T02:11:27.184Z,2.97
2023-04-29T02:13:54.756Z,2.83
2023-04-29T02:16:21.569Z,2.75
2023-04-29T02:18:48.297Z,2.80
2023-04-29T02:21:14.947Z,2.83
2023-04-29T02:23:41.603Z,2.88
2023-04-29T02:26:09.729Z,2.60
2023-04-29T02:28:36.630Z,2.92
2023-04-29T02:31:03.271Z,2.47
2023-04-29T02:33:29.900Z,2.80
2023-04-29T02:35:56.528Z,3.10
2023-04-29T02:38:23.190Z,2.55
2023-04-29T02:40:50.377Z,2.53
2023-04-29T02:43:17.129Z,2.40
2023-04-29T02:45:44.601Z,2.65
2023-04-29T02:48:11.530Z,2.78
2023-04-29T02:50:38.352Z,2.53
2023-04-29T02:53:05.053Z,2.55
2023-04-29T02:55:31.695Z,2.70
2023-04-29T02:57:58.727Z,3.00
2023-04-29T03:00:25.444Z,2.85
2023-04-29T03:02:52.097Z,2.92
2023-04-29T03:05:19.209Z,2.53
2023-04-29T03:07:45.982Z,2.67
2023-04-29T03:10:12.768Z,2.58
2023-04-29T03:12:39.608Z,2.78
2023-04-29T03:15:10.580Z,2.35
2023-04-29T03:17:37.487Z,2.63
2023-04-29T03:20:04.828Z,2.60
2023-04-29T03:22:31.616Z,2.45
2023-04-29T03:24:58.196Z,2.78
2023-04-29T03:27:24.930Z,2.58
2023-04-29T03:29:51.977Z,2.38
2023-04-29T03:32:18.892Z,2.70
2023-04-29T03:34:45.646Z,2.95
2023-04-29T03:37:12.800Z,2.70
2023-04-29T03:39:39.457Z,2.28
2023-04-29T03:42:06.159Z,2.13
2023-04-29T03:44:32.820Z,2.40
2023-04-29T03:46:59.650Z,2.50
2023-04-29T03:49:26.311Z,2.70
2023-04-29T03:51:53.545Z,2.92
2023-04-29T03:54:20.214Z,2.90
2023-04-29T03:56:46.858Z,2.60
2023-04-29T03:59:13.584Z,2.33
2023-04-29T04:01:40.310Z,2.60
2023-04-29T04:04:07.176Z,2.40
2023-04-29T04:06:34.103Z,2.63
2023-04-29T04:09:00.938Z,2.22
2023-04-29T04:11:27.715Z,2.45
2023-04-29T04:13:54.453Z,2.30
2023-04-29T04:16:21.174Z,2.65
2023-04-29T04:18:47.848Z,2.45
2023-04-29T04:21:14.612Z,2.20
2023-04-29T04:23:41.302Z,2.53
2023-04-29T04:26:08.248Z,2.47
2023-04-29T04:28:34.972Z,2.53
2023-04-29T04:31:01.704Z,2.45
2023-04-29T04:33:28.718Z,2.67
2023-04-29T04:35:55.341Z,2.67
2023-04-29T04:38:25.302Z,2.63
2023-04-29T04:40:52.032Z,2.63
2023-04-29T04:43:19.039Z,2.38
2023-04-29T04:45:45.828Z,2.58
2023-04-29T04:48:12.692Z,2.42
2023-04-29T04:50:40.077Z,2.30
2023-04-29T04:53:06.711Z,2.40
2023-04-29T04:55:33.716Z,2.50
2023-04-29T04:58:00.403Z,2.83
2023-04-29T05:00:27.146Z,2.90
2023-04-29T05:02:53.988Z,2.30
2023-04-29T05:05:21.840Z,2.70
2023-04-29T05:07:48.526Z,2.80
2023-04-29T05:10:15.160Z,2.92
2023-04-29T05:12:41.822Z,2.42
2023-04-29T05:15:08.797Z,2.63
2023-04-29T05:17:36.544Z,2.83
2023-04-29T05:20:03.683Z,2.25
2023-04-29T05:22:30.599Z,2.30
2023-04-29T05:25:02.768Z,2.42
2023-04-29T05:27:29.806Z,2.47
2023-04-29T05:29:56.983Z,2.78
2023-04-29T05:32:23.843Z,2.30
2023-04-29T05:34:50.794Z,2.53
2023-04-29T05:37:17.464Z,2.05
2023-04-29T05:39:44.186Z,2.50
2023-04-29T05:42:10.983Z,2.70
2023-04-29T05:44:37.659Z,2.58
2023-04-29T05:47:04.289Z,2.28
2023-04-29T05:49:31.029Z,2.20
2023-04-29T05:51:57.625Z,2.35
2023-04-29T05:54:24.321Z,2.40
2023-04-29T05:56:51.006Z,2.22
2023-04-29T05:59:17.724Z,2.20
2023-04-29T06:01:44.460Z,2.45
2023-04-29T06:04:11.290Z,2.42
2023-04-29T06:06:38.639Z,2.20
2023-04-29T06:09:10.798Z,2.20
2023-04-29T06:11:44.291Z,2.58
2023-04-29T06:14:11.476Z,2.30
2023-04-29T06:16:39.289Z,2.72
2023-04-29T06:19:06.309Z,2.50
2023-04-29T06:21:32.987Z,2.58
2023-04-29T06:23:59.636Z,2.53
2023-04-29T06:26:26.320Z,2.60
2023-04-29T06:28:54.143Z,2.45
2023-04-29T06:31:23.077Z,2.42
2023-04-29T06:33:50.095Z,2.45
2023-04-29T06:36:16.950Z,2.25
2023-04-29T06:38:43.746Z,2.50
2023-04-29T06:41:10.449Z,2.45
2023-04-29T06:43:37.208Z,2.28
2023-04-29T06:46:04.138Z,2.35
2023-04-29T06:48:30.908Z,2.10
2023-04-29T06:50:58.365Z,2.40
2023-04-29T06:53:25.207Z,2.47
2023-04-29T06:55:52.083Z,2.30
2023-04-29T06:58:19.758Z,2.50
2023-04-29T07:00:50.957Z,2.35
2023-04-29T07:03:19.000Z,1.83
2023-04-29T07:05:46.299Z,1.92
2023-04-29T07:08:13.881Z,2.28
2023-04-29T07:10:41.740Z,2.50
2023-04-29T07:13:08.492Z,2.60
2023-04-29T07:15:36.382Z,2.58
2023-04-29T07:18:06.717Z,2.22
2023-04-29T07:20:36.373Z,2.17
2023-04-29T07:23:03.167Z,2.35
2023-04-29T07:25:29.847Z,2.42
2023-04-29T07:27:57.025Z,2.10
2023-04-29T07:30:24.246Z,2.28
2023-04-29T07:32:51.008Z,2.13
2023-04-29T07:35:18.617Z,2.17
2023-04-29T07:37:45.832Z,2.47
2023-04-29T07:40:13.471Z,2.35
2023-04-29T07:42:40.151Z,2.85
2023-04-29T07:45:07.261Z,2.75
2023-04-29T07:47:34.191Z,2.65
2023-04-29T07:50:01.351Z,2.38
2023-04-29T07:52:28.212Z,2.20
2023-04-29T07:54:56.392Z,2.22
2023-04-29T07:57:23.250Z,2.58
2023-04-29T07:59:56.240Z,2.67
2023-04-29T08:02:23.266Z,2.50
2023-04-29T08:04:51.607Z,2.53
2023-04-29T08:07:18.764Z,2.67
2023-04-29T08:09:45.653Z,2.70
2023-04-29T08:12:12.505Z,2.50
2023-04-29T08:14:39.279Z,2.45
2023-04-29T08:17:06.091Z,2.30
2023-04-29T08:19:32.958Z,2.40
2023-04-29T08:22:01.238Z,2.63
2023-04-29T08:24:29.051Z,2.10
2023-04-29T08:26:55.726Z,2.20
2023-04-29T08:29:22.525Z,2.28
2023-04-29T08:31:50.128Z,2.13
2023-04-29T08:34:16.843Z,2.05
2023-04-29T08:36:43.521Z,2.38
2023-04-29T08:39:10.402Z,2.25
2023-04-29T08:41:37.559Z,2.33
2023-04-29T08:44:04.303Z,2.17
2023-04-29T08:46:32.567Z,2.20
2023-04-29T08:49:01.794Z,2.38
2023-04-29T08:51:28.537Z,2.35
2023-04-29T08:53:56.722Z,2.50
2023-04-29T08:56:23.376Z,2.05
2023-04-29T08:58:58.226Z,2.58
2023-04-29T09:01:29.276Z,2.40
2023-04-29T09:04:10.064Z,2.47
2023-04-29T09:06:36.931Z,2.40
2023-04-29T09:09:04.056Z,2.88
2023-04-29T09:11:30.994Z,2.28
2023-04-29T09:14:01.688Z,2.58
2023-04-29T09:16:29.296Z,2.43
2023-04-29T09:18:56.850Z,2.38
2023-04-29T09:21:27.110Z,2.35
2023-04-29T09:23:59.081Z,2.25
2023-04-29T09:26:26.998Z,2.22
2023-04-29T09:29:14.398Z,2.33
2023-04-29T09:31:42.124Z,2.33
2023-04-29T09:34:09.519Z,2.08
2023-04-29T09:36:42.049Z,2.58
2023-04-29T09:39:11.918Z,2.10
2023-04-29T09:41:56.600Z,1.95
2023-04-29T09:44:25.158Z,2.08
2023-04-29T09:47:10.727Z,1.90
2023-04-29T09:49:43.077Z,2.20
2023-04-29T09:52:14.445Z,2.20
2023-04-29T09:54:43.190Z,1.83
2023-04-29T09:57:11.861Z,2.30
2023-04-29T09:59:40.765Z,2.20
2023-04-29T10:02:18.694Z,2.30
2023-04-29T10:04:47.451Z,2.30
2023-04-29T10:07:18.310Z,2.15
2023-04-29T10:09:48.581Z,2.00
2023-04-29T10:12:20.262Z,2.22
2023-04-29T10:15:12.524Z,1.90
2023-04-29T10:17:46.525Z,2.10
2023-04-29T10:20:24.329Z,2.28
2023-04-29T10:22:52.939Z,2.00
2023-04-29T10:25:21.267Z,1.95
2023-04-29T10:27:49.177Z,1.88
2023-04-29T10:30:18.365Z,1.80
2023-04-29T10:32:50.880Z,1.90
2023-04-29T10:35:20.438Z,2.22
2023-04-29T10:37:48.971Z,1.92
2023-04-29T10:40:31.164Z,2.45
2023-04-29T10:42:59.530Z,2.00
2023-04-29T10:45:31.691Z,2.15
2023-04-29T10:48:08.814Z,1.90
2023-04-29T10:50:42.282Z,2.03
2023-04-29T10:53:09.017Z,2.60
2023-04-29T10:55:39.032Z,2.20
2023-04-29T10:58:06.674Z,2.20
2023-04-29T11:00:37.816Z,2.25
2023-04-29T11:03:06.498Z,2.03
2023-04-29T11:05:37.451Z,1.88
2023-04-29T11:08:16.217Z,1.67
2023-04-29T11:10:43.954Z,1.92
2023-04-29T11:13:22.174Z,1.75
2023-04-29T11:15:49.050Z,1.60
2023-04-29T11:18:16.019Z,1.75
2023-04-29T11:21:15.029Z,1.63
2023-04-29T11:23:42.325Z,1.65
2023-04-29T11:26:09.125Z,1.83
2023-04-29T11:28:36.989Z,1.70
2023-04-29T11:31:04.031Z,2.10
2023-04-29T11:33:32.938Z,1.80
2023-04-29T11:36:00.779Z,1.45
2023-04-29T11:38:31.358Z,1.80
2023-04-29T11:40:59.404Z,1.70
2023-04-29T11:43:26.394Z,1.65
2023-04-29T11:45:53.655Z,1.40
2023-04-29T11:48:24.251Z,1.73
2023-04-29T11:50:54.972Z,1.70
2023-04-29T11:53:25.646Z,1.60
2023-04-29T11:55:56.166Z,1.63
2023-04-29T11:58:24.359Z,2.13
2023-04-29T12:00:54.447Z,1.73
2023-04-29T12:03:21.848Z,1.58
2023-04-29T12:05:55.424Z,1.58
2023-04-29T12:08:26.767Z,1.85
2023-04-29T12:10:55.456Z,1.63
2023-04-29T12:13:24.503Z,1.60
2023-04-29T12:15:52.857Z,1.58
2023-04-29T12:18:22.741Z,1.73
2023-04-29T12:20:51.503Z,1.70
2023-04-29T12:23:20.535Z,1.67
2023-04-29T12:25:58.952Z,1.80
2023-04-29T12:28:26.381Z,1.42
2023-04-29T12:30:54.381Z,1.88
2023-04-29T12:33:26.746Z,1.52
2023-04-29T12:35:56.706Z,1.45
2023-04-29T12:38:28.980Z,1.50
2023-04-29T12:40:57.073Z,1.48
2023-04-29T12:43:30.952Z,1.77
2023-04-29T12:46:02.377Z,2.25
2023-04-29T12:48:34.222Z,1.40
2023-04-29T12:51:02.069Z,1.83
2023-04-29T12:53:32.178Z,1.88
2023-04-29T12:55:59.341Z,1.90
2023-04-29T12:58:30.218Z,1.80
2023-04-29T13:00:57.498Z,1.60
2023-04-29T13:03:24.952Z,1.75
2023-04-29T13:05:53.763Z,1.73
2023-04-29T13:08:20.997Z,1.77
2023-04-29T13:10:47.682Z,1.35
2023-04-29T13:13:14.329Z,1.63
2023-04-29T13:15:41.250Z,1.35
2023-04-29T13:18:08.085Z,1.40
2023-04-29T13:20:40.976Z,1.23
2023-04-29T13:23:08.921Z,1.60
2023-04-29T13:25:35.900Z,1.67
2023-04-29T13:28:02.948Z,1.20
2023-04-29T13:30:29.665Z,1.95
2023-04-29T13:33:01.253Z,1.90
2023-04-29T13:35:31.153Z,1.40
2023-04-29T13:37:57.924Z,2.05
2023-04-29T13:40:27.843Z,1.60
2023-04-29T13:43:02.608Z,1.85
2023-04-29T13:45:38.326Z,1.50
2023-04-29T13:48:17.014Z,1.83
2023-04-29T13:56:41.167Z,1.75
2023-04-29T14:01:48.107Z,1.50
2023-04-29T14:04:02.771Z,1.58
2023-04-29T14:06:32.289Z,1.50
2023-04-29T14:09:00.557Z,1.55
2023-04-29T14:11:28.853Z,1.40
2023-04-29T14:13:56.099Z,1.55
2023-04-29T14:16:22.867Z,1.48
2023-04-29T14:18:49.635Z,1.45
2023-04-29T14:21:16.350Z,1.92
2023-04-29T14:23:43.041Z,1.60
2023-04-29T14:28:39.205Z,1.38
2023-04-29T14:31:06.210Z,1.40
2023-04-29T14:33:32.916Z,1.42
2023-04-29T14:36:00.989Z,1.58
2023-04-29T14:38:27.694Z,1.50
2023-04-29T14:40:54.435Z,1.40
2023-04-29T14:43:21.081Z,1.30
2023-04-29T14:45:48.302Z,1.50
2023-04-29T14:48:14.934Z,1.67
2023-04-29T14:50:41.583Z,1.60
2023-04-29T14:53:08.787Z,1.40
2023-04-29T14:55:35.824Z,1.50
2023-04-29T14:58:04.938Z,1.60
2023-04-29T15:00:31.884Z,1.35
2023-04-29T15:02:59.189Z,1.40
2023-04-29T15:05:25.910Z,1.30
2023-04-29T15:07:52.625Z,1.73
2023-04-29T15:10:19.328Z,1.60
2023-04-29T15:12:45.994Z,1.40
2023-04-29T15:15:12.624Z,1.58
2023-04-29T15:17:39.216Z,1.40
2023-04-29T15:20:07.476Z,1.50
2023-04-29T15:22:34.105Z,1.38
2023-04-29T15:25:01.196Z,1.40
2023-04-29T15:27:28.335Z,1.63
2023-04-29T15:29:56.986Z,1.40
2023-04-29T15:32:31.680Z,1.40
2023-04-29T15:35:02.487Z,1.58
2023-04-29T15:37:30.164Z,1.40
2023-04-29T15:39:59.818Z,1.40
2023-04-29T15:42:26.664Z,1.58
2023-04-29T15:44:53.494Z,1.48
2023-04-29T15:47:20.389Z,1.42
2023-04-29T15:49:47.163Z,1.38
2023-04-29T15:52:13.770Z,1.65
2023-04-29T15:54:40.931Z,1.90
2023-04-29T15:57:07.686Z,1.50
2023-04-29T15:59:34.375Z,1.30
2023-04-29T16:02:01.031Z,1.30
2023-04-29T16:04:27.740Z,1.48
2023-04-29T16:06:54.369Z,1.30
2023-04-29T16:09:21.464Z,1.50
2023-04-29T16:11:48.128Z,1.42
2023-04-29T16:14:14.744Z,1.30
2023-04-29T16:16:41.557Z,1.40
2023-04-29T16:19:08.493Z,1.38
2023-04-29T16:21:35.244Z,1.20
2023-04-29T16:24:02.138Z,1.20
2023-04-29T16:26:28.862Z,1.30
2023-04-29T16:28:55.786Z,1.17
2023-04-29T16:31:23.654Z,1.20
2023-04-29T16:33:50.611Z,1.25
2023-04-29T16:36:17.450Z,1.10
2023-04-29T16:38:44.075Z,1.30
2023-04-29T16:41:10.838Z,1.10
2023-04-29T16:43:37.604Z,1.23
2023-04-29T16:46:04.449Z,1.20
2023-04-29T16:48:31.472Z,1.25
2023-04-29T16:50:58.679Z,1.17
2023-04-29T16:53:25.369Z,1.48
2023-04-29T16:55:52.048Z,1.17
2023-04-29T16:58:19.302Z,1.15
2023-04-29T17:00:46.496Z,1.33
2023-04-29T17:03:13.438Z,1.33
2023-04-29T17:05:40.684Z,1.30
2023-04-29T17:08:07.522Z,1.13
2023-04-29T17:10:34.139Z,1.15
2023-04-29T17:13:01.280Z,1.20
2023-04-29T17:15:28.000Z,0.98
2023-04-29T17:17:55.684Z,1.10
2023-04-29T17:20:22.366Z,1.27
2023-04-29T17:22:49.458Z,1.40
2023-04-29T17:25:16.456Z,1.10
2023-04-29T17:27:45.663Z,1.08
2023-04-29T17:30:12.831Z,1.20
2023-04-29T17:32:39.640Z,1.30
2023-04-29T17:35:10.475Z,1.30
2023-04-29T17:37:37.077Z,1.20
2023-04-29T17:40:04.471Z,1.00
2023-04-29T17:42:31.504Z,0.90
2023-04-29T17:44:58.227Z,1.10
2023-04-29T17:47:24.975Z,1.17
2023-04-29T17:49:52.402Z,1.58
2023-04-29T17:52:21.310Z,1.10
2023-04-29T17:54:50.969Z,1.17
2023-04-29T17:57:17.731Z,1.10
2023-04-29T17:59:44.395Z,1.33
2023-04-29T18:02:11.137Z,1.27
2023-04-29T18:04:37.986Z,1.58
2023-04-29T18:07:04.596Z,1.25
2023-04-29T18:09:31.334Z,1.33
2023-04-29T18:11:57.943Z,1.40
2023-04-29T18:14:24.754Z,1.40
2023-04-29T18:16:51.689Z,1.40
2023-04-29T18:19:18.391Z,1.25
2023-04-29T18:21:45.081Z,1.67
2023-04-29T18:24:11.766Z,1.48
2023-04-29T18:26:38.378Z,1.40
2023-04-29T18:29:05.027Z,1.30
2023-04-29T18:31:31.765Z,1.55
2023-04-29T18:33:58.518Z,1.15
2023-04-29T18:36:25.516Z,1.70
2023-04-29T18:38:52.241Z,1.30
2023-04-29T18:41:18.850Z,1.40
2023-04-29T18:43:45.658Z,1.33
2023-04-29T18:46:12.333Z,1.35
2023-04-29T18:48:40.531Z,1.58
2023-04-29T18:51:07.410Z,1.20
2023-04-29T18:53:34.437Z,1.50
2023-04-29T18:56:01.220Z,1.30
2023-04-29T18:58:28.052Z,1.45
2023-04-29T19:00:55.125Z,1.40
2023-04-29T19:03:22.052Z,1.40
2023-04-29T19:05:48.757Z,1.60
2023-04-29T19:08:16.471Z,2.22
2023-04-29T19:10:44.413Z,1.42
2023-04-29T19:13:11.628Z,1.55
2023-04-29T19:15:38.697Z,2.10
2023-04-29T19:18:05.435Z,2.28
2023-04-29T19:20:32.384Z,2.53
2023-04-29T19:22:59.090Z,2.00
2023-04-29T19:25:28.540Z,2.25
2023-04-29T19:27:55.218Z,2.40
2023-04-29T19:30:21.996Z,2.03
2023-04-29T19:32:51.182Z,1.95
2023-04-29T19:35:17.945Z,1.90
2023-04-29T19:37:44.620Z,1.70
2023-04-29T19:40:11.671Z,1.63
2023-04-29T19:42:39.439Z,1.77
2023-04-29T19:45:07.786Z,1.60
2023-04-29T19:47:35.268Z,1.85
2023-04-29T19:50:02.521Z,2.05
2023-04-29T19:52:29.702Z,1.83
2023-04-29T19:54:56.762Z,1.98
2023-04-29T19:57:23.401Z,1.77
2023-04-29T19:59:50.200Z,1.85
2023-04-29T20:02:17.009Z,1.73
2023-04-29T20:04:43.707Z,1.92
2023-04-29T20:07:10.422Z,1.90
2023-04-29T20:09:37.695Z,1.90
2023-04-29T20:12:04.783Z,1.90
2023-04-29T20:14:32.783Z,1.80
2023-04-29T20:17:00.582Z,1.83
2023-04-29T20:19:27.614Z,1.80
2023-04-29T20:21:54.246Z,1.63
2023-04-29T20:24:20.960Z,1.55
2023-04-29T20:26:47.699Z,1.50
2023-04-29T20:29:14.428Z,1.65
2023-04-29T20:31:41.738Z,1.70
2023-04-29T20:34:08.498Z,1.80
2023-04-29T20:36:35.144Z,1.40
2023-04-29T20:39:01.868Z,1.60
2023-04-29T20:41:29.071Z,1.75
2023-04-29T20:43:56.166Z,1.70
2023-04-29T20:46:25.283Z,1.60
2023-04-29T20:48:52.971Z,1.45
2023-04-29T20:51:19.665Z,1.45
2023-04-29T20:53:46.850Z,1.48
2023-04-29T20:56:13.692Z,1.50
2023-04-29T20:58:40.597Z,1.50
2023-04-29T21:01:08.084Z,1.70
2023-04-29T21:03:35.113Z,1.80
2023-04-29T21:06:01.843Z,1.90
2023-04-29T21:08:28.661Z,1.52
2023-04-29T21:10:56.179Z,1.58
2023-04-29T21:13:23.037Z,1.77
2023-04-29T21:15:49.792Z,1.63
2023-04-29T21:18:16.558Z,1.33
2023-04-29T21:20:43.316Z,1.42
2023-04-29T21:23:10.076Z,1.70
2023-04-29T21:25:36.823Z,2.28
2023-04-29T21:28:04.513Z,1.88
2023-04-29T21:30:31.203Z,1.90
2023-04-29T21:32:57.987Z,1.92
2023-04-29T21:35:25.961Z,2.53
2023-04-29T21:37:52.711Z,2.20
2023-04-29T21:40:19.573Z,2.15
2023-04-29T21:42:46.495Z,2.20
2023-04-29T21:45:15.980Z,2.15
2023-04-29T21:47:44.510Z,1.92
2023-04-29T21:50:11.874Z,2.42
2023-04-29T21:52:38.692Z,2.60
2023-04-29T21:55:06.328Z,2.10
2023-04-29T21:57:43.416Z,2.20
2023-04-29T22:00:28.495Z,2.03
2023-04-29T22:02:55.652Z,1.77
2023-04-29T22:05:22.485Z,2.15
2023-04-29T22:07:49.205Z,2.13
2023-04-29T22:10:16.009Z,1.90
2023-04-29T22:12:42.630Z,2.38
2023-04-29T22:15:20.733Z,1.98
2023-04-29T22:17:54.708Z,1.70
2023-04-29T22:20:21.485Z,2.00
2023-04-29T22:22:48.169Z,1.67
2023-04-29T22:25:14.852Z,2.30
2023-04-29T22:27:41.488Z,2.25
2023-04-29T22:30:08.860Z,2.10
2023-04-29T22:32:35.921Z,1.95
2023-04-29T22:35:02.647Z,1.83
2023-04-29T22:37:29.328Z,3.15
2023-04-29T22:39:56.856Z,1.98
2023-04-29T22:42:24.013Z,2.17
2023-04-29T22:44:50.651Z,1.67
2023-04-29T22:47:17.391Z,2.33
2023-04-29T22:49:43.999Z,2.42
2023-04-29T22:52:10.654Z,2.38
2023-04-29T22:54:37.340Z,1.73
2023-04-29T22:57:04.139Z,1.92
2023-04-29T22:59:30.915Z,1.80
2023-04-29T23:01:57.733Z,2.17
2023-04-29T23:04:24.768Z,1.90
2023-04-29T23:06:51.943Z,2.00
2023-04-29T23:09:18.982Z,1.98
2023-04-29T23:11:45.658Z,2.00
2023-04-29T23:14:12.370Z,1.85
2023-04-29T23:16:39.070Z,1.70
2023-04-29T23:19:05.812Z,2.10
2023-04-29T23:21:32.430Z,2.17
2023-04-29T23:23:59.133Z,1.90
2023-04-29T23:26:25.859Z,1.88
2023-04-29T23:28:52.582Z,2.08
2023-04-29T23:31:19.371Z,2.00
2023-04-29T23:33:46.101Z,1.70
2023-04-29T23:36:12.865Z,2.22
2023-04-29T23:38:39.465Z,2.08
2023-04-29T23:41:06.275Z,2.05
2023-04-29T23:43:33.115Z,2.45
2023-04-29T23:45:59.787Z,2.65
2023-04-29T23:48:26.625Z,2.95
2023-04-29T23:50:53.208Z,2.60
2023-04-29T23:53:19.794Z,2.75
2023-04-29T23:55:46.495Z,3.20
2023-04-29T23:58:13.252Z,3.28
